Almonesson, New Jersey
Current Conditions -  °F | °C
As of 11:40 AM on Wednesday 22 Oct 2014 (Local Time) from KPHL Reporting Station
Heavy Rain Heavy Rain  
Wind Chill: 13°   Ceiling: 1300
Heat Index: 13°   Visibility: 2mi
Dew Point: 11°   Wind: 17mph
Humidity: 87%   Direction: 20°NNE
Pressure: 29.88"   Gusts: 30mph
Location:  39.8266°N, 75.1276°W
Report Text: KPHL 221540Z 02015G26KT 2SM +RA BKN013 OVC025 13/11 A2988 RMK AO2 PK WND 02026/1532 SFC VIS 5 P0006 T01330111 $
Loading
Personal Weather Stations






























Interactive Weather Map
Tropical Storm Tracking
New forecast layout! Learn more

10-Day Weather Forecast

Advertisements
Track Severe Weather on mobile